Airfield :
LOGIN :

Register | Disclaimer

   EN    FR    IT 

 










Legend :    VFR   Marginal VFR   IFR   Intensive IFR   Very Intensive IFR
Visi :
Ceiling :
>= 8 km
>= 3000ft
5 to 8 km
1000 to 3000 ft
1500m to 5 km
500 to 1000 ft
800 to 1500m
200 to 500 ft
< 800m
< 200 ft
Symbols :   Thunderstorms  Fog  Heavy snow  Heavy precipitations  Wind > 20 kt
SIGMETs :     Misc.  Thunderstorms  Icing  Turbulence  Mountain Waves  Volcanic Ashes






- Airport Elevation : 1260 ft
- IATA code : LDE


LFBT - Tarbes / Ossun

CURRENT METAR :
  • 102030Z AUTO 16007KT CAVOK 05/03 Q1022 NOSIG

EXPIRED METARs :
  • 102000Z AUTO 17006KT CAVOK 03/03 Q1022 NOSIG
  • 101930Z AUTO 19003KT CAVOK 02/02 Q1022 NOSIG
  • 101900Z AUTO 14004KT CAVOK 03/03 Q1022 NOSIG
  • 101830Z AUTO 19003KT CAVOK 04/03 Q1023 NOSIG
  • 101800Z AUTO 16003KT CAVOK 04/04 Q1023 NOSIG

TAF TAF LFBT
Valid from the 10 at 18:00 until the 11 at 18:00 UTC


101700Z 1018/1118 10005KT CAVOK
BECMG 1021/1023 20005KT BKN060
BECMG 1106/1108 26010KT
TEMPO 1108/1113 3000 RA OVC008
PROB30
TEMPO 1110/1118 28015G30KT
PROB30
TEMPO 1116/1118 1500 TSRA SCT010 BKN020CB



MET'MAP, your aeronautical weather chart ! - Copyright ORBIFLY December 2007 - Disclaimer

ORBIFLY MET'MAP TEAM :

Programming & Development : Alexandra Zaïnal
Concept & original design : Baudouin d'Aumeries
Assistance for programming : Marc-Olivier Méhu
Technical & hardware support : Manuel Goepfert

Contact : metmap@orbifly.com




SOURCES & CREDITS :

   NOAA